Terminal Aerodrome Forecast
Issued by NWS

Home | Current Version | Previous Version | Graphics & Text | Print | Product List | Glossary On
Versions: 1 2 3 4 5 6 7 8 9 10 11 12 13 14 15 16 17 18 19 20
000
FTUS43 KTOP 021100
TAFFOE
TAF
KFOE 021120Z 0212/0312 12006KT P6SM SCT060
     FM021800 13013KT P6SM BKN200
     FM030000 15013KT 5SM -DZ BR OVC018
     FM030300 17015G26KT 4SM -RA BR OVC007=

USA.gov is the U.S. government's official web portal to all federal, state and local government web resources and services.